sensor_id;sensor_type;location;lat;lon;timestamp;pressure;altitude;pressure_sealevel;temperature;humidity
3132;BME280;62090;52.330;9.104;2023-11-19T00:01:42;100298.50;;;8.86;100.00
3132;BME280;62090;52.330;9.104;2023-11-19T00:04:14;100290.84;;;8.85;100.00
3132;BME280;62090;52.330;9.104;2023-11-19T00:06:47;100302.13;;;8.96;100.00
3132;BME280;62090;52.330;9.104;2023-11-19T00:09:16;100298.81;;;9.00;100.00
3132;BME280;62090;52.330;9.104;2023-11-19T00:11:46;100252.53;;;8.76;100.00
3132;BME280;62090;52.330;9.104;2023-11-19T00:14:19;100282.84;;;9.06;100.00
3132;BME280;62090;52.330;9.104;2023-11-19T00:16:49;100281.28;;;9.09;100.00
3132;BME280;62090;52.330;9.104;2023-11-19T00:19:20;100294.00;;;9.11;100.00
3132;BME280;62090;52.330;9.104;2023-11-19T00:21:53;100302.56;;;9.16;100.00
3132;BME280;62090;52.330;9.104;2023-11-19T00:24:23;100274.88;;;8.90;100.00
3132;BME280;62090;52.330;9.104;2023-11-19T00:26:53;100229.63;;;8.74;100.00
3132;BME280;62090;52.330;9.104;2023-11-19T00:29:23;100305.22;;;9.19;100.00
3132;BME280;62090;52.330;9.104;2023-11-19T00:31:53;100308.63;;;9.19;100.00
3132;BME280;62090;52.330;9.104;2023-11-19T00:34:24;100272.53;;;8.98;100.00
3132;BME280;62090;52.330;9.104;2023-11-19T00:36:56;100290.81;;;9.19;100.00
3132;BME280;62090;52.330;9.104;2023-11-19T00:39:26;100272.75;;;9.07;100.00
3132;BME280;62090;52.330;9.104;2023-11-19T00:41:56;100229.34;;;8.98;100.00
3132;BME280;62090;52.330;9.104;2023-11-19T00:44:26;100269.81;;;9.28;100.00
3132;BME280;62090;52.330;9.104;2023-11-19T00:46:56;100266.56;;;9.33;100.00
3132;BME280;62090;52.330;9.104;2023-11-19T00:49:26;100265.00;;;9.42;100.00
3132;BME280;62090;52.330;9.104;2023-11-19T00:51:59;100198.28;;;9.11;100.00
3132;BME280;62090;52.330;9.104;2023-11-19T00:54:29;100218.25;;;9.33;100.00
3132;BME280;62090;52.330;9.104;2023-11-19T00:56:59;100220.00;;;9.38;100.00
3132;BME280;62090;52.330;9.104;2023-11-19T00:59:29;100188.28;;;9.20;100.00
3132;BME280;62090;52.330;9.104;2023-11-19T01:01:59;100241.00;;;9.69;100.00
3132;BME280;62090;52.330;9.104;2023-11-19T01:04:33;100188.81;;;9.45;100.00
3132;BME280;62090;52.330;9.104;2023-11-19T01:07:06;100205.88;;;9.52;100.00
3132;BME280;62090;52.330;9.104;2023-11-19T01:09:41;100222.41;;;9.72;100.00
3132;BME280;62090;52.330;9.104;2023-11-19T01:12:11;100224.25;;;9.81;100.00
3132;BME280;62090;52.330;9.104;2023-11-19T01:14:42;100222.63;;;9.84;100.00
3132;BME280;62090;52.330;9.104;2023-11-19T01:17:11;100218.44;;;9.86;100.00
3132;BME280;62090;52.330;9.104;2023-11-19T01:19:44;100188.31;;;9.64;100.00
3132;BME280;62090;52.330;9.104;2023-11-19T01:22:16;100192.50;;;9.60;100.00
3132;BME280;62090;52.330;9.104;2023-11-19T01:24:46;100216.06;;;9.95;100.00
3132;BME280;62090;52.330;9.104;2023-11-19T01:27:16;100163.91;;;9.72;100.00
3132;BME280;62090;52.330;9.104;2023-11-19T01:29:46;100138.53;;;9.77;100.00
3132;BME280;62090;52.330;9.104;2023-11-19T01:32:16;100187.47;;;10.10;100.00
3132;BME280;62090;52.330;9.104;2023-11-19T01:34:46;100123.31;;;9.78;100.00
3132;BME280;62090;52.330;9.104;2023-11-19T01:37:19;100166.50;;;10.23;100.00
3132;BME280;62090;52.330;9.104;2023-11-19T01:39:49;99909.47;;;8.68;100.00
3132;BME280;62090;52.330;9.104;2023-11-19T01:42:22;100182.94;;;10.42;100.00
3132;BME280;62090;52.330;9.104;2023-11-19T01:44:59;100195.88;;;10.54;100.00
3132;BME280;62090;52.330;9.104;2023-11-19T01:47:30;100176.31;;;10.53;100.00
3132;BME280;62090;52.330;9.104;2023-11-19T01:50:01;100184.06;;;10.59;100.00
3132;BME280;62090;52.330;9.104;2023-11-19T01:52:36;100172.25;;;10.64;100.00
3132;BME280;62090;52.330;9.104;2023-11-19T01:55:10;100150.84;;;10.53;100.00
3132;BME280;62090;52.330;9.104;2023-11-19T01:57:40;100139.69;;;10.45;100.00
3132;BME280;62090;52.330;9.104;2023-11-19T02:00:12;100159.41;;;10.58;100.00
3132;BME280;62090;52.330;9.104;2023-11-19T02:02:44;100098.66;;;10.27;100.00
3132;BME280;62090;52.330;9.104;2023-11-19T02:05:15;100067.84;;;10.11;100.00
3132;BME280;62090;52.330;9.104;2023-11-19T02:07:48;100140.75;;;10.59;100.00
3132;BME280;62090;52.330;9.104;2023-11-19T02:10:19;100153.59;;;10.65;100.00
3132;BME280;62090;52.330;9.104;2023-11-19T02:12:52;100122.69;;;10.44;100.00
3132;BME280;62090;52.330;9.104;2023-11-19T02:15:32;100090.25;;;10.31;100.00
3132;BME280;62090;52.330;9.104;2023-11-19T02:18:18;100140.78;;;10.61;100.00
3132;BME280;62090;52.330;9.104;2023-11-19T02:20:49;100104.03;;;10.45;100.00
3132;BME280;62090;52.330;9.104;2023-11-19T02:23:22;100142.66;;;10.72;100.00
3132;BME280;62090;52.330;9.104;2023-11-19T02:26:02;100067.41;;;10.35;100.00
3132;BME280;62090;52.330;9.104;2023-11-19T02:28:36;100137.53;;;10.71;100.00
3132;BME280;62090;52.330;9.104;2023-11-19T02:31:06;100128.38;;;10.83;100.00
3132;BME280;62090;52.330;9.104;2023-11-19T02:33:37;100086.31;;;10.52;100.00
3132;BME280;62090;52.330;9.104;2023-11-19T02:36:08;100128.41;;;10.86;100.00
3132;BME280;62090;52.330;9.104;2023-11-19T02:38:38;100109.72;;;10.87;100.00
3132;BME280;62090;52.330;9.104;2023-11-19T02:41:08;100091.84;;;10.86;100.00
3132;BME280;62090;52.330;9.104;2023-11-19T02:43:41;100078.31;;;10.88;100.00
3132;BME280;62090;52.330;9.104;2023-11-19T02:46:11;100102.28;;;11.02;100.00
3132;BME280;62090;52.330;9.104;2023-11-19T02:48:42;100068.13;;;10.90;100.00
3132;BME280;62090;52.330;9.104;2023-11-19T02:51:13;100092.22;;;11.15;100.00
3132;BME280;62090;52.330;9.104;2023-11-19T02:53:42;100060.66;;;11.07;100.00
3132;BME280;62090;52.330;9.104;2023-11-19T02:56:15;100077.91;;;11.26;100.00
3132;BME280;62090;52.330;9.104;2023-11-19T02:58:54;100081.31;;;11.28;100.00
3132;BME280;62090;52.330;9.104;2023-11-19T03:01:25;100082.22;;;11.34;100.00
3132;BME280;62090;52.330;9.104;2023-11-19T03:04:01;100078.06;;;11.42;100.00
3132;BME280;62090;52.330;9.104;2023-11-19T03:06:31;100085.75;;;11.46;100.00
3132;BME280;62090;52.330;9.104;2023-11-19T03:09:01;100084.03;;;11.41;100.00
3132;BME280;62090;52.330;9.104;2023-11-19T03:11:37;100078.94;;;11.48;100.00
3132;BME280;62090;52.330;9.104;2023-11-19T03:14:09;100059.34;;;11.42;100.00
3132;BME280;62090;52.330;9.104;2023-11-19T03:16:39;100055.88;;;11.37;100.00
3132;BME280;62090;52.330;9.104;2023-11-19T03:19:09;100081.59;;;11.55;100.00
3132;BME280;62090;52.330;9.104;2023-11-19T03:21:51;100069.66;;;11.51;100.00
3132;BME280;62090;52.330;9.104;2023-11-19T03:24:21;100038.84;;;11.33;100.00
3132;BME280;62090;52.330;9.104;2023-11-19T03:26:51;100060.31;;;11.55;100.00
3132;BME280;62090;52.330;9.104;2023-11-19T03:29:24;100077.50;;;11.71;100.00
3132;BME280;62090;52.330;9.104;2023-11-19T03:31:55;100048.47;;;11.60;100.00
3132;BME280;62090;52.330;9.104;2023-11-19T03:34:25;100072.50;;;11.80;100.00
3132;BME280;62090;52.330;9.104;2023-11-19T03:36:55;100000.72;;;11.48;100.00
3132;BME280;62090;52.330;9.104;2023-11-19T03:39:25;100055.50;;;11.82;100.00
3132;BME280;62090;52.330;9.104;2023-11-19T03:41:56;100054.72;;;11.92;100.00
3132;BME280;62090;52.330;9.104;2023-11-19T03:44:29;99931.72;;;11.30;100.00
3132;BME280;62090;52.330;9.104;2023-11-19T03:46:59;100039.44;;;11.97;100.00
3132;BME280;62090;52.330;9.104;2023-11-19T03:49:29;100041.16;;;11.98;100.00
3132;BME280;62090;52.330;9.104;2023-11-19T03:51:59;100019.75;;;11.80;100.00
3132;BME280;62090;52.330;9.104;2023-11-19T03:54:29;100018.88;;;11.80;100.00
3132;BME280;62090;52.330;9.104;2023-11-19T03:56:59;100037.72;;;11.96;100.00
3132;BME280;62090;52.330;9.104;2023-11-19T03:59:33;100004.44;;;11.82;100.00
3132;BME280;62090;52.330;9.104;2023-11-19T04:02:03;100034.38;;;12.01;100.00
3132;BME280;62090;52.330;9.104;2023-11-19T04:04:33;100035.19;;;11.97;100.00
3132;BME280;62090;52.330;9.104;2023-11-19T04:07:05;100048.03;;;12.11;100.00
3132;BME280;62090;52.330;9.104;2023-11-19T04:09:35;99977.06;;;11.69;100.00
3132;BME280;62090;52.330;9.104;2023-11-19T04:12:05;99989.09;;;11.76;100.00
3132;BME280;62090;52.330;9.104;2023-11-19T04:14:38;100037.78;;;11.99;100.00
3132;BME280;62090;52.330;9.104;2023-11-19T04:17:08;100022.44;;;11.97;100.00
3132;BME280;62090;52.330;9.104;2023-11-19T04:19:38;100023.34;;;12.05;100.00
3132;BME280;62090;52.330;9.104;2023-11-19T04:22:09;100016.50;;;12.03;100.00
3132;BME280;62090;52.330;9.104;2023-11-19T04:24:39;100058.41;;;12.29;100.00
3132;BME280;62090;52.330;9.104;2023-11-19T04:27:11;99951.69;;;11.78;100.00
3132;BME280;62090;52.330;9.104;2023-11-19T04:29:45;100001.22;;;12.09;100.00
3132;BME280;62090;52.330;9.104;2023-11-19T04:32:19;99942.34;;;11.81;100.00
3132;BME280;62090;52.330;9.104;2023-11-19T04:34:50;100051.75;;;12.55;100.00
3132;BME280;62090;52.330;9.104;2023-11-19T04:37:21;100043.25;;;12.61;100.00
3132;BME280;62090;52.330;9.104;2023-11-19T04:39:50;100042.44;;;12.63;100.00
3132;BME280;62090;52.330;9.104;2023-11-19T04:42:22;100035.56;;;12.59;100.00
3132;BME280;62090;52.330;9.104;2023-11-19T04:44:54;100038.16;;;12.62;100.00
3132;BME280;62090;52.330;9.104;2023-11-19T04:47:24;99951.03;;;12.09;100.00
3132;BME280;62090;52.330;9.104;2023-11-19T04:49:54;99970.66;;;12.22;100.00
3132;BME280;62090;52.330;9.104;2023-11-19T04:52:24;99942.47;;;12.03;100.00
3132;BME280;62090;52.330;9.104;2023-11-19T04:54:54;99990.38;;;12.46;100.00
3132;BME280;62090;52.330;9.104;2023-11-19T04:57:24;99964.75;;;12.26;100.00
3132;BME280;62090;52.330;9.104;2023-11-19T04:59:57;100022.78;;;12.59;100.00
3132;BME280;62090;52.330;9.104;2023-11-19T05:02:27;100009.13;;;12.54;100.00
3132;BME280;62090;52.330;9.104;2023-11-19T05:04:57;100016.84;;;12.57;100.00
3132;BME280;62090;52.330;9.104;2023-11-19T05:07:27;99971.56;;;12.38;100.00
3132;BME280;62090;52.330;9.104;2023-11-19T05:09:57;99918.66;;;12.07;100.00
3132;BME280;62090;52.330;9.104;2023-11-19T05:12:27;99972.47;;;12.42;100.00
3132;BME280;62090;52.330;9.104;2023-11-19T05:15:01;99905.84;;;11.98;100.00
3132;BME280;62090;52.330;9.104;2023-11-19T05:17:31;100000.66;;;12.64;100.00
3132;BME280;62090;52.330;9.104;2023-11-19T05:20:01;100002.38;;;12.70;100.00
3132;BME280;62090;52.330;9.104;2023-11-19T05:22:31;99952.81;;;12.30;100.00
3132;BME280;62090;52.330;9.104;2023-11-19T05:25:01;99949.44;;;12.34;100.00
3132;BME280;62090;52.330;9.104;2023-11-19T05:27:32;100015.19;;;12.73;100.00
3132;BME280;62090;52.330;9.104;2023-11-19T05:30:06;99866.63;;;11.85;100.00
3132;BME280;62090;52.330;9.104;2023-11-19T05:32:38;100004.94;;;12.62;100.00
3132;BME280;62090;52.330;9.104;2023-11-19T05:35:08;100022.03;;;12.77;100.00
3132;BME280;62090;52.330;9.104;2023-11-19T05:37:38;99940.94;;;12.41;100.00
3132;BME280;62090;52.330;9.104;2023-11-19T05:40:09;100004.09;;;12.76;100.00
3132;BME280;62090;52.330;9.104;2023-11-19T05:42:42;100011.78;;;12.77;100.00
3132;BME280;62090;52.330;9.104;2023-11-19T05:45:15;100026.31;;;12.83;100.00
3132;BME280;62090;52.330;9.104;2023-11-19T05:47:45;100033.13;;;12.84;100.00
3132;BME280;62090;52.330;9.104;2023-11-19T05:50:15;99983.59;;;12.57;100.00
3132;BME280;62090;52.330;9.104;2023-11-19T05:52:46;99958.06;;;12.57;100.00
3132;BME280;62090;52.330;9.104;2023-11-19T05:55:16;100016.06;;;12.86;100.00
3132;BME280;62090;52.330;9.104;2023-11-19T05:57:46;99947.78;;;12.42;100.00
3132;BME280;62090;52.330;9.104;2023-11-19T06:00:21;99992.19;;;12.68;100.00
3132;BME280;62090;52.330;9.104;2023-11-19T06:02:51;100042.50;;;12.86;100.00
3132;BME280;62090;52.330;9.104;2023-11-19T06:05:21;99946.88;;;12.36;100.00
3132;BME280;62090;52.330;9.104;2023-11-19T06:07:51;99939.19;;;12.28;100.00
3132;BME280;62090;52.330;9.104;2023-11-19T06:10:21;100016.06;;;12.83;100.00
3132;BME280;62090;52.330;9.104;2023-11-19T06:12:56;100001.59;;;12.79;100.00
3132;BME280;62090;52.330;9.104;2023-11-19T06:15:29;99965.69;;;12.47;100.00
3132;BME280;62090;52.330;9.104;2023-11-19T06:17:59;100018.63;;;12.81;100.00
3132;BME280;62090;52.330;9.104;2023-11-19T06:20:31;99998.16;;;12.72;100.00
3132;BME280;62090;52.330;9.104;2023-11-19T06:23:03;99941.75;;;12.26;100.00
3132;BME280;62090;52.330;9.104;2023-11-19T06:25:33;99992.19;;;12.76;100.00
3132;BME280;62090;52.330;9.104;2023-11-19T06:28:04;100044.22;;;12.92;100.00
3132;BME280;62090;52.330;9.104;2023-11-19T06:30:37;99972.53;;;12.60;100.00
3132;BME280;62090;52.330;9.104;2023-11-19T06:33:08;100006.69;;;12.79;100.00
3132;BME280;62090;52.330;9.104;2023-11-19T06:35:38;99972.50;;;12.54;100.00
3132;BME280;62090;52.330;9.104;2023-11-19T06:38:08;100001.56;;;12.74;100.00
3132;BME280;62090;52.330;9.104;2023-11-19T06:40:38;100022.88;;;12.81;100.00
3132;BME280;62090;52.330;9.104;2023-11-19T06:43:08;99966.50;;;12.41;100.00
3132;BME280;62090;52.330;9.104;2023-11-19T06:45:41;100013.41;;;12.57;100.00
3132;BME280;62090;52.330;9.104;2023-11-19T06:48:11;99896.38;;;11.78;100.00
3132;BME280;62090;52.330;9.104;2023-11-19T06:50:41;100065.50;;;12.82;100.00
3132;BME280;62090;52.330;9.104;2023-11-19T06:53:11;100026.16;;;12.49;100.00
3132;BME280;62090;52.330;9.104;2023-11-19T06:55:41;100060.38;;;12.79;100.00
3132;BME280;62090;52.330;9.104;2023-11-19T06:58:11;99894.53;;;11.64;100.00
3132;BME280;62090;52.330;9.104;2023-11-19T07:00:44;99933.88;;;11.89;100.00
3132;BME280;62090;52.330;9.104;2023-11-19T07:03:15;100036.38;;;12.46;100.00
3132;BME280;62090;52.330;9.104;2023-11-19T07:05:47;100066.28;;;12.62;100.00
3132;BME280;62090;52.330;9.104;2023-11-19T07:08:17;100085.91;;;12.76;100.00
3132;BME280;62090;52.330;9.104;2023-11-19T07:10:47;100056.88;;;12.57;100.00
3132;BME280;62090;52.330;9.104;2023-11-19T07:13:17;100083.38;;;12.74;100.00
3132;BME280;62090;52.330;9.104;2023-11-19T07:15:50;100031.22;;;12.40;100.00
3132;BME280;62090;52.330;9.104;2023-11-19T07:18:20;100009.00;;;12.27;100.00
3132;BME280;62090;52.330;9.104;2023-11-19T07:20:50;99897.09;;;11.62;100.00
3132;BME280;62090;52.330;9.104;2023-11-19T07:23:20;100047.44;;;12.45;100.00
3132;BME280;62090;52.330;9.104;2023-11-19T07:25:50;100078.16;;;12.56;100.00
3132;BME280;62090;52.330;9.104;2023-11-19T07:28:20;100089.31;;;12.68;100.00
3132;BME280;62090;52.330;9.104;2023-11-19T07:30:53;100094.44;;;12.68;100.00
3132;BME280;62090;52.330;9.104;2023-11-19T07:33:23;100072.19;;;12.57;100.00
3132;BME280;62090;52.330;9.104;2023-11-19T07:35:53;100096.94;;;12.65;100.00
3132;BME280;62090;52.330;9.104;2023-11-19T07:38:23;100082.44;;;12.60;100.00
3132;BME280;62090;52.330;9.104;2023-11-19T07:40:53;100110.66;;;12.80;100.00
3132;BME280;62090;52.330;9.104;2023-11-19T07:43:23;100106.41;;;12.82;100.00
3132;BME280;62090;52.330;9.104;2023-11-19T07:45:56;99994.47;;;12.15;100.00
3132;BME280;62090;52.330;9.104;2023-11-19T07:48:26;100034.56;;;12.33;100.00
3132;BME280;62090;52.330;9.104;2023-11-19T07:50:56;100100.38;;;12.70;100.00
3132;BME280;62090;52.330;9.104;2023-11-19T07:53:26;100079.03;;;12.58;100.00
3132;BME280;62090;52.330;9.104;2023-11-19T07:55:56;100045.69;;;12.43;100.00
3132;BME280;62090;52.330;9.104;2023-11-19T07:58:26;100093.59;;;12.73;100.00
3132;BME280;62090;52.330;9.104;2023-11-19T08:00:59;100092.69;;;12.69;100.00
3132;BME280;62090;52.330;9.104;2023-11-19T08:03:29;100099.50;;;12.65;100.00
3132;BME280;62090;52.330;9.104;2023-11-19T08:06:02;100129.47;;;12.88;100.00
3132;BME280;62090;52.330;9.104;2023-11-19T08:08:33;100107.13;;;12.56;100.00
3132;BME280;62090;52.330;9.104;2023-11-19T08:11:05;100104.63;;;12.65;100.00
3132;BME280;62090;52.330;9.104;2023-11-19T08:13:35;100091.72;;;12.49;100.00
3132;BME280;62090;52.330;9.104;2023-11-19T08:16:08;100064.38;;;12.31;100.00
3132;BME280;62090;52.330;9.104;2023-11-19T08:18:41;100137.91;;;12.76;100.00
3132;BME280;62090;52.330;9.104;2023-11-19T08:21:11;100145.59;;;12.81;100.00
3132;BME280;62090;52.330;9.104;2023-11-19T08:23:41;100090.00;;;12.48;100.00
3132;BME280;62090;52.330;9.104;2023-11-19T08:26:11;100144.78;;;12.83;100.00
3132;BME280;62090;52.330;9.104;2023-11-19T08:28:43;100147.34;;;12.83;100.00
3132;BME280;62090;52.330;9.104;2023-11-19T08:31:17;100056.69;;;12.25;100.00
3132;BME280;62090;52.330;9.104;2023-11-19T08:33:47;100132.78;;;12.73;100.00
3132;BME280;62090;52.330;9.104;2023-11-19T08:36:17;100125.09;;;12.75;100.00
3132;BME280;62090;52.330;9.104;2023-11-19T08:38:47;100075.50;;;12.39;100.00
3132;BME280;62090;52.330;9.104;2023-11-19T08:41:18;100151.59;;;12.86;100.00
3132;BME280;62090;52.330;9.104;2023-11-19T08:43:48;100118.28;;;12.75;100.00
3132;BME280;62090;52.330;9.104;2023-11-19T08:46:21;100096.03;;;12.54;100.00
3132;BME280;62090;52.330;9.104;2023-11-19T08:48:52;100121.63;;;12.60;100.00
3132;BME280;62090;52.330;9.104;2023-11-19T08:51:24;100154.19;;;12.89;100.00
3132;BME280;62090;52.330;9.104;2023-11-19T08:53:55;100072.94;;;12.39;100.00
3132;BME280;62090;52.330;9.104;2023-11-19T09:12:25;100165.31;;;12.95;100.00
3132;BME280;62090;52.330;9.104;2023-11-19T09:14:55;99953.22;;;11.64;100.00
3132;BME280;62090;52.330;9.104;2023-11-19T09:17:25;100174.69;;;13.01;100.00
3132;BME280;62090;52.330;9.104;2023-11-19T09:19:55;100184.94;;;13.04;100.00
3132;BME280;62090;52.330;9.104;2023-11-19T09:22:25;100155.94;;;12.99;100.00
3132;BME280;62090;52.330;9.104;2023-11-19T09:24:55;100177.31;;;13.10;100.00
3132;BME280;62090;52.330;9.104;2023-11-19T09:27:30;100132.03;;;12.94;100.00
3132;BME280;62090;52.330;9.104;2023-11-19T09:29:59;100144.00;;;12.98;100.00
3132;BME280;62090;52.330;9.104;2023-11-19T09:32:30;100161.97;;;13.11;100.00
3132;BME280;62090;52.330;9.104;2023-11-19T09:35:01;100157.72;;;13.12;100.00
3132;BME280;62090;52.330;9.104;2023-11-19T09:37:31;100129.44;;;12.83;100.00
3132;BME280;62090;52.330;9.104;2023-11-19T09:40:01;100154.19;;;12.93;100.00
3132;BME280;62090;52.330;9.104;2023-11-19T09:42:39;100163.69;;;13.11;100.00
3132;BME280;62090;52.330;9.104;2023-11-19T09:45:14;100150.81;;;13.02;100.00
3132;BME280;62090;52.330;9.104;2023-11-19T09:47:46;100195.38;;;13.31;100.00
3132;BME280;62090;52.330;9.104;2023-11-19T09:50:17;100164.59;;;13.16;100.00
3132;BME280;62090;52.330;9.104;2023-11-19T09:52:47;100168.00;;;13.18;100.00
3132;BME280;62090;52.330;9.104;2023-11-19T09:55:17;100197.09;;;13.44;100.00
3132;BME280;62090;52.330;9.104;2023-11-19T09:57:52;100202.22;;;13.41;100.00
3132;BME280;62090;52.330;9.104;2023-11-19T10:00:22;100199.66;;;13.40;100.00
3132;BME280;62090;52.330;9.104;2023-11-19T10:02:54;100196.19;;;13.30;100.00
3132;BME280;62090;52.330;9.104;2023-11-19T10:05:25;100161.94;;;13.05;100.00
3132;BME280;62090;52.330;9.104;2023-11-19T10:07:55;100137.13;;;12.85;100.00
3132;BME280;62090;52.330;9.104;2023-11-19T10:10:25;100186.72;;;13.13;100.00
3132;BME280;62090;52.330;9.104;2023-11-19T10:12:58;100202.00;;;13.06;100.00
3132;BME280;62090;52.330;9.104;2023-11-19T10:15:29;100194.34;;;13.05;100.00
3132;BME280;62090;52.330;9.104;2023-11-19T10:18:03;100186.53;;;12.84;100.00
3132;BME280;62090;52.330;9.104;2023-11-19T10:20:38;100190.75;;;12.76;100.00
3132;BME280;62090;52.330;9.104;2023-11-19T10:23:11;100196.69;;;12.73;100.00
3132;BME280;62090;52.330;9.104;2023-11-19T10:25:41;100178.81;;;12.76;100.00
3132;BME280;62090;52.330;9.104;2023-11-19T10:28:15;100152.28;;;12.57;100.00
3132;BME280;62090;52.330;9.104;2023-11-19T10:30:48;100178.81;;;12.76;100.00
3132;BME280;62090;52.330;9.104;2023-11-19T10:33:23;100148.91;;;12.64;100.00
3132;BME280;62090;52.330;9.104;2023-11-19T10:35:54;100158.41;;;12.82;100.00
3132;BME280;62090;52.330;9.104;2023-11-19T10:38:27;100174.72;;;13.04;100.00
3132;BME280;62090;52.330;9.104;2023-11-19T10:40:58;100183.31;;;13.14;100.00
3132;BME280;62090;52.330;9.104;2023-11-19T10:43:30;100131.22;;;12.95;100.00
3132;BME280;62090;52.330;9.104;2023-11-19T10:46:09;100140.63;;;13.08;100.00
3132;BME280;62090;52.330;9.104;2023-11-19T10:48:40;100129.53;;;13.04;100.00
3132;BME280;62090;52.330;9.104;2023-11-19T10:51:10;100173.19;;;13.36;100.00
3132;BME280;62090;52.330;9.104;2023-11-19T10:53:45;100151.00;;;13.26;100.00
3132;BME280;62090;52.330;9.104;2023-11-19T10:56:16;100122.81;;;13.19;100.00
3132;BME280;62090;52.330;9.104;2023-11-19T10:58:51;100145.88;;;13.38;100.00
3132;BME280;62090;52.330;9.104;2023-11-19T11:01:23;100109.97;;;13.11;100.00
3132;BME280;62090;52.330;9.104;2023-11-19T11:03:59;100116.84;;;13.21;100.00
3132;BME280;62090;52.330;9.104;2023-11-19T11:06:30;100154.44;;;13.43;100.00
3132;BME280;62090;52.330;9.104;2023-11-19T11:09:00;100162.13;;;13.40;100.00
3132;BME280;62090;52.330;9.104;2023-11-19T11:11:31;100118.56;;;13.25;100.00
3132;BME280;62090;52.330;9.104;2023-11-19T11:14:04;100151.03;;;13.40;100.00
3132;BME280;62090;52.330;9.104;2023-11-19T11:16:36;100113.41;;;13.18;100.00
3132;BME280;62090;52.330;9.104;2023-11-19T11:19:08;100106.56;;;13.12;100.00
3132;BME280;62090;52.330;9.104;2023-11-19T11:21:41;100093.78;;;13.12;100.00
3132;BME280;62090;52.330;9.104;2023-11-19T11:24:31;100137.38;;;13.36;100.00
3132;BME280;62090;52.330;9.104;2023-11-19T11:27:28;100142.53;;;13.42;100.00
3132;BME280;62090;52.330;9.104;2023-11-19T11:30:16;100096.38;;;13.15;100.00
3132;BME280;62090;52.330;9.104;2023-11-19T11:32:57;100111.72;;;13.27;100.00
3132;BME280;62090;52.330;9.104;2023-11-19T11:35:39;100104.06;;;13.26;100.00
3132;BME280;62090;52.330;9.104;2023-11-19T11:38:14;100144.25;;;13.62;100.00
3132;BME280;62090;52.330;9.104;2023-11-19T11:41:17;100148.59;;;13.88;100.00
3132;BME280;62090;52.330;9.104;2023-11-19T11:43:55;100145.16;;;13.82;100.00
3132;BME280;62090;52.330;9.104;2023-11-19T11:46:57;100147.72;;;13.80;99.20
3132;BME280;62090;52.330;9.104;2023-11-19T11:49:28;100146.00;;;13.81;99.08
3132;BME280;62090;52.330;9.104;2023-11-19T11:52:03;100133.16;;;13.60;99.69
3132;BME280;62090;52.330;9.104;2023-11-19T11:54:34;100151.97;;;13.71;99.15
3132;BME280;62090;52.330;9.104;2023-11-19T11:57:07;100128.03;;;13.50;99.67
3132;BME280;62090;52.330;9.104;2023-11-19T11:59:47;100141.72;;;13.62;100.00
3132;BME280;62090;52.330;9.104;2023-11-19T12:02:21;100098.13;;;13.31;100.00
3132;BME280;62090;52.330;9.104;2023-11-19T12:04:52;100142.50;;;13.48;100.00
3132;BME280;62090;52.330;9.104;2023-11-19T12:07:24;100146.81;;;13.62;100.00
3132;BME280;62090;52.330;9.104;2023-11-19T12:10:07;100145.09;;;13.59;100.00
3132;BME280;62090;52.330;9.104;2023-11-19T12:12:39;100098.06;;;13.22;100.00
3132;BME280;62090;52.330;9.104;2023-11-19T12:15:10;100147.63;;;13.41;100.00
3132;BME280;62090;52.330;9.104;2023-11-19T12:17:50;100135.63;;;13.29;100.00
3132;BME280;62090;52.330;9.104;2023-11-19T12:20:21;100159.56;;;13.40;100.00
3132;BME280;62090;52.330;9.104;2023-11-19T12:22:55;100162.97;;;13.39;100.00
3132;BME280;62090;52.330;9.104;2023-11-19T12:25:25;100141.59;;;13.21;100.00
3132;BME280;62090;52.330;9.104;2023-11-19T12:27:55;100132.16;;;13.12;100.00
3132;BME280;62090;52.330;9.104;2023-11-19T12:30:25;100156.06;;;13.23;100.00
3132;BME280;62090;52.330;9.104;2023-11-19T12:32:59;100143.25;;;13.19;100.00
3132;BME280;62090;52.330;9.104;2023-11-19T12:35:29;100119.31;;;13.07;100.00
3132;BME280;62090;52.330;9.104;2023-11-19T12:37:59;100078.28;;;12.82;100.00
3132;BME280;62090;52.330;9.104;2023-11-19T12:40:29;100139.00;;;13.16;100.00
3132;BME280;62090;52.330;9.104;2023-11-19T12:42:59;100142.41;;;13.17;100.00
3132;BME280;62090;52.330;9.104;2023-11-19T12:45:34;100147.59;;;13.30;100.00
3132;BME280;62090;52.330;9.104;2023-11-19T12:48:08;100129.69;;;13.32;100.00
3132;BME280;62090;52.330;9.104;2023-11-19T12:50:51;100102.34;;;13.20;100.00
3132;BME280;62090;52.330;9.104;2023-11-19T12:53:23;100140.81;;;13.41;100.00
3132;BME280;62090;52.330;9.104;2023-11-19T12:55:54;100127.97;;;13.38;100.00
3132;BME280;62090;52.330;9.104;2023-11-19T12:58:31;100115.16;;;13.29;100.00
3132;BME280;62090;52.330;9.104;2023-11-19T13:01:02;100128.84;;;13.43;100.00
3132;BME280;62090;52.330;9.104;2023-11-19T13:03:37;100112.63;;;13.40;100.00
3132;BME280;62090;52.330;9.104;2023-11-19T13:06:08;100116.88;;;13.35;100.00
3132;BME280;62090;52.330;9.104;2023-11-19T13:08:40;100133.97;;;13.40;100.00
3132;BME280;62090;52.330;9.104;2023-11-19T13:11:12;100115.19;;;13.40;100.00
3132;BME280;62090;52.330;9.104;2023-11-19T13:13:56;100077.63;;;13.24;100.00
3132;BME280;62090;52.330;9.104;2023-11-19T13:16:27;100076.75;;;13.17;100.00
3132;BME280;62090;52.330;9.104;2023-11-19T13:19:00;100110.91;;;13.39;100.00
3132;BME280;62090;52.330;9.104;2023-11-19T13:21:30;100112.66;;;13.47;100.00
3132;BME280;62090;52.330;9.104;2023-11-19T13:24:00;100113.53;;;13.48;100.00
3132;BME280;62090;52.330;9.104;2023-11-19T13:26:30;100111.78;;;13.48;100.00
3132;BME280;62090;52.330;9.104;2023-11-19T13:29:01;100107.56;;;13.58;100.00
3132;BME280;62090;52.330;9.104;2023-11-19T13:31:31;100079.34;;;13.34;100.00
3132;BME280;62090;52.330;9.104;2023-11-19T13:34:04;100094.75;;;13.47;100.00